sensor_id;sensor_type;location;lat;lon;timestamp;temperature;humidity
17174;DHT22;8702;48.130;-1.696;2023-03-03T00:02:02;6.30;99.90
17174;DHT22;8702;48.130;-1.696;2023-03-03T00:04:29;6.30;99.90
17174;DHT22;8702;48.130;-1.696;2023-03-03T00:06:56;6.40;99.90
17174;DHT22;8702;48.130;-1.696;2023-03-03T00:09:23;6.40;99.90
17174;DHT22;8702;48.130;-1.696;2023-03-03T00:11:56;6.40;99.90
17174;DHT22;8702;48.130;-1.696;2023-03-03T00:14:28;6.40;99.90
17174;DHT22;8702;48.130;-1.696;2023-03-03T00:16:59;6.30;99.90
17174;DHT22;8702;48.130;-1.696;2023-03-03T00:19:26;6.30;99.90
17174;DHT22;8702;48.130;-1.696;2023-03-03T00:21:55;6.30;99.90
17174;DHT22;8702;48.130;-1.696;2023-03-03T00:24:24;6.30;99.90
17174;DHT22;8702;48.130;-1.696;2023-03-03T00:27:00;6.20;99.90
17174;DHT22;8702;48.130;-1.696;2023-03-03T00:29:31;6.30;99.90
17174;DHT22;8702;48.130;-1.696;2023-03-03T00:32:21;6.30;99.90
17174;DHT22;8702;48.130;-1.696;2023-03-03T00:34:50;6.30;99.90
17174;DHT22;8702;48.130;-1.696;2023-03-03T00:37:28;6.40;99.90
17174;DHT22;8702;48.130;-1.696;2023-03-03T00:40:01;6.40;99.90
17174;DHT22;8702;48.130;-1.696;2023-03-03T00:42:35;6.40;99.90
17174;DHT22;8702;48.130;-1.696;2023-03-03T00:45:26;6.40;99.90
17174;DHT22;8702;48.130;-1.696;2023-03-03T00:47:55;6.40;99.90
17174;DHT22;8702;48.130;-1.696;2023-03-03T00:50:31;6.40;99.90
17174;DHT22;8702;48.130;-1.696;2023-03-03T00:53:04;6.50;99.90
17174;DHT22;8702;48.130;-1.696;2023-03-03T00:55:32;6.50;99.90
17174;DHT22;8702;48.130;-1.696;2023-03-03T00:57:59;6.50;99.90
17174;DHT22;8702;48.130;-1.696;2023-03-03T01:00:26;6.50;99.90
17174;DHT22;8702;48.130;-1.696;2023-03-03T01:02:55;6.50;99.90
17174;DHT22;8702;48.130;-1.696;2023-03-03T01:05:22;6.40;99.90
17174;DHT22;8702;48.130;-1.696;2023-03-03T01:07:49;6.50;99.90
17174;DHT22;8702;48.130;-1.696;2023-03-03T01:10:16;6.40;99.90
17174;DHT22;8702;48.130;-1.696;2023-03-03T01:12:44;6.40;99.90
17174;DHT22;8702;48.130;-1.696;2023-03-03T01:15:12;6.30;99.90
17174;DHT22;8702;48.130;-1.696;2023-03-03T01:17:40;6.30;99.90
17174;DHT22;8702;48.130;-1.696;2023-03-03T01:20:11;6.40;99.90
17174;DHT22;8702;48.130;-1.696;2023-03-03T01:22:38;6.40;99.90
17174;DHT22;8702;48.130;-1.696;2023-03-03T01:25:06;6.40;99.90
17174;DHT22;8702;48.130;-1.696;2023-03-03T01:27:34;6.30;99.90
17174;DHT22;8702;48.130;-1.696;2023-03-03T01:30:02;6.30;99.90
17174;DHT22;8702;48.130;-1.696;2023-03-03T01:32:29;6.30;99.90
17174;DHT22;8702;48.130;-1.696;2023-03-03T01:34:56;6.20;99.90
17174;DHT22;8702;48.130;-1.696;2023-03-03T01:37:24;6.20;99.90
17174;DHT22;8702;48.130;-1.696;2023-03-03T01:39:52;6.20;99.90
17174;DHT22;8702;48.130;-1.696;2023-03-03T01:42:20;6.30;99.90
17174;DHT22;8702;48.130;-1.696;2023-03-03T01:44:47;6.20;99.90
17174;DHT22;8702;48.130;-1.696;2023-03-03T01:47:16;6.10;99.90
17174;DHT22;8702;48.130;-1.696;2023-03-03T01:49:48;6.20;99.90
17174;DHT22;8702;48.130;-1.696;2023-03-03T01:52:22;6.10;99.90
17174;DHT22;8702;48.130;-1.696;2023-03-03T01:54:56;6.10;99.90
17174;DHT22;8702;48.130;-1.696;2023-03-03T01:57:26;6.10;99.90
17174;DHT22;8702;48.130;-1.696;2023-03-03T01:59:54;6.10;99.90
17174;DHT22;8702;48.130;-1.696;2023-03-03T02:02:24;6.00;99.90
17174;DHT22;8702;48.130;-1.696;2023-03-03T02:04:52;6.00;99.90
17174;DHT22;8702;48.130;-1.696;2023-03-03T02:07:23;6.00;99.90
17174;DHT22;8702;48.130;-1.696;2023-03-03T02:09:56;6.00;99.90
17174;DHT22;8702;48.130;-1.696;2023-03-03T02:12:29;6.00;99.90
17174;DHT22;8702;48.130;-1.696;2023-03-03T02:14:58;6.00;99.90
17174;DHT22;8702;48.130;-1.696;2023-03-03T02:17:25;6.00;99.90
17174;DHT22;8702;48.130;-1.696;2023-03-03T02:19:57;6.10;99.90
17174;DHT22;8702;48.130;-1.696;2023-03-03T02:22:34;6.00;99.90
17174;DHT22;8702;48.130;-1.696;2023-03-03T02:25:12;6.00;99.90
17174;DHT22;8702;48.130;-1.696;2023-03-03T02:27:41;6.00;99.90
17174;DHT22;8702;48.130;-1.696;2023-03-03T02:30:13;5.90;99.90
17174;DHT22;8702;48.130;-1.696;2023-03-03T02:32:43;6.00;99.90
17174;DHT22;8702;48.130;-1.696;2023-03-03T02:35:30;6.00;99.90
17174;DHT22;8702;48.130;-1.696;2023-03-03T02:38:06;5.90;99.90
17174;DHT22;8702;48.130;-1.696;2023-03-03T02:40:37;6.00;99.90
17174;DHT22;8702;48.130;-1.696;2023-03-03T02:43:07;6.00;99.90
17174;DHT22;8702;48.130;-1.696;2023-03-03T02:45:41;6.00;99.90
17174;DHT22;8702;48.130;-1.696;2023-03-03T02:48:08;6.00;99.90
17174;DHT22;8702;48.130;-1.696;2023-03-03T02:50:35;5.90;99.90
17174;DHT22;8702;48.130;-1.696;2023-03-03T02:53:02;5.80;99.90
17174;DHT22;8702;48.130;-1.696;2023-03-03T02:55:29;5.80;99.90
17174;DHT22;8702;48.130;-1.696;2023-03-03T02:57:56;5.90;99.90
17174;DHT22;8702;48.130;-1.696;2023-03-03T03:00:24;5.90;99.90
17174;DHT22;8702;48.130;-1.696;2023-03-03T03:02:51;5.90;99.90
17174;DHT22;8702;48.130;-1.696;2023-03-03T03:05:18;5.90;99.90
17174;DHT22;8702;48.130;-1.696;2023-03-03T03:07:45;5.90;99.90
17174;DHT22;8702;48.130;-1.696;2023-03-03T03:10:12;5.80;99.90
17174;DHT22;8702;48.130;-1.696;2023-03-03T03:12:39;5.80;99.90
17174;DHT22;8702;48.130;-1.696;2023-03-03T03:15:07;5.80;99.90
17174;DHT22;8702;48.130;-1.696;2023-03-03T03:17:37;5.80;99.90
17174;DHT22;8702;48.130;-1.696;2023-03-03T03:20:05;5.80;99.90
17174;DHT22;8702;48.130;-1.696;2023-03-03T03:22:33;5.80;99.90
17174;DHT22;8702;48.130;-1.696;2023-03-03T03:25:00;5.70;99.90
17174;DHT22;8702;48.130;-1.696;2023-03-03T03:27:27;5.70;99.90
17174;DHT22;8702;48.130;-1.696;2023-03-03T03:29:54;5.60;99.90
17174;DHT22;8702;48.130;-1.696;2023-03-03T03:32:21;5.50;99.90
17174;DHT22;8702;48.130;-1.696;2023-03-03T03:34:49;5.60;99.90
17174;DHT22;8702;48.130;-1.696;2023-03-03T03:37:16;5.60;99.90
17174;DHT22;8702;48.130;-1.696;2023-03-03T03:39:43;5.50;99.90
17174;DHT22;8702;48.130;-1.696;2023-03-03T03:42:10;5.60;99.90
17174;DHT22;8702;48.130;-1.696;2023-03-03T03:44:37;5.60;99.90
17174;DHT22;8702;48.130;-1.696;2023-03-03T03:47:04;5.50;99.90
17174;DHT22;8702;48.130;-1.696;2023-03-03T03:49:31;5.50;99.90
17174;DHT22;8702;48.130;-1.696;2023-03-03T03:51:59;5.50;99.90
17174;DHT22;8702;48.130;-1.696;2023-03-03T03:54:26;5.40;99.90
17174;DHT22;8702;48.130;-1.696;2023-03-03T03:56:53;5.40;99.90
17174;DHT22;8702;48.130;-1.696;2023-03-03T03:59:20;5.40;99.90
17174;DHT22;8702;48.130;-1.696;2023-03-03T04:01:47;5.50;99.90
17174;DHT22;8702;48.130;-1.696;2023-03-03T04:04:15;5.50;99.90
17174;DHT22;8702;48.130;-1.696;2023-03-03T04:06:41;5.50;99.90
17174;DHT22;8702;48.130;-1.696;2023-03-03T04:09:10;5.50;99.90
17174;DHT22;8702;48.130;-1.696;2023-03-03T04:11:37;5.40;99.90
17174;DHT22;8702;48.130;-1.696;2023-03-03T04:14:07;5.50;99.90
17174;DHT22;8702;48.130;-1.696;2023-03-03T04:16:34;5.50;99.90
17174;DHT22;8702;48.130;-1.696;2023-03-03T04:19:01;5.50;99.90
17174;DHT22;8702;48.130;-1.696;2023-03-03T04:21:28;5.50;99.90
17174;DHT22;8702;48.130;-1.696;2023-03-03T04:23:55;5.50;99.90
17174;DHT22;8702;48.130;-1.696;2023-03-03T04:26:23;5.50;99.90
17174;DHT22;8702;48.130;-1.696;2023-03-03T04:28:51;5.50;99.90
17174;DHT22;8702;48.130;-1.696;2023-03-03T04:31:18;5.50;99.90
17174;DHT22;8702;48.130;-1.696;2023-03-03T04:33:45;5.50;99.90
17174;DHT22;8702;48.130;-1.696;2023-03-03T04:36:12;5.50;99.90
17174;DHT22;8702;48.130;-1.696;2023-03-03T04:38:39;5.40;99.90
17174;DHT22;8702;48.130;-1.696;2023-03-03T04:41:06;5.50;99.90
17174;DHT22;8702;48.130;-1.696;2023-03-03T04:43:34;5.50;99.90
17174;DHT22;8702;48.130;-1.696;2023-03-03T04:46:01;5.40;99.90
17174;DHT22;8702;48.130;-1.696;2023-03-03T04:48:28;5.40;99.90
17174;DHT22;8702;48.130;-1.696;2023-03-03T04:50:55;5.40;99.90
17174;DHT22;8702;48.130;-1.696;2023-03-03T04:53:22;5.30;99.90
17174;DHT22;8702;48.130;-1.696;2023-03-03T04:55:49;5.30;99.90
17174;DHT22;8702;48.130;-1.696;2023-03-03T04:58:16;5.20;99.90
17174;DHT22;8702;48.130;-1.696;2023-03-03T05:00:45;5.10;99.90
17174;DHT22;8702;48.130;-1.696;2023-03-03T05:03:12;5.10;99.90
17174;DHT22;8702;48.130;-1.696;2023-03-03T05:05:39;5.10;99.90
17174;DHT22;8702;48.130;-1.696;2023-03-03T05:08:06;5.10;99.90
17174;DHT22;8702;48.130;-1.696;2023-03-03T05:10:33;5.10;99.90
17174;DHT22;8702;48.130;-1.696;2023-03-03T05:13:00;5.10;99.90
17174;DHT22;8702;48.130;-1.696;2023-03-03T05:15:27;5.20;99.90
17174;DHT22;8702;48.130;-1.696;2023-03-03T05:17:55;5.10;99.90
17174;DHT22;8702;48.130;-1.696;2023-03-03T05:20:22;5.10;99.90
17174;DHT22;8702;48.130;-1.696;2023-03-03T05:22:50;5.10;99.90
17174;DHT22;8702;48.130;-1.696;2023-03-03T05:25:17;5.10;99.90
17174;DHT22;8702;48.130;-1.696;2023-03-03T05:27:44;5.10;99.90
17174;DHT22;8702;48.130;-1.696;2023-03-03T05:30:12;5.20;99.90
17174;DHT22;8702;48.130;-1.696;2023-03-03T05:32:39;5.10;99.90
17174;DHT22;8702;48.130;-1.696;2023-03-03T05:35:08;5.20;99.90
17174;DHT22;8702;48.130;-1.696;2023-03-03T05:37:35;5.10;99.90
17174;DHT22;8702;48.130;-1.696;2023-03-03T05:40:05;5.00;99.90
17174;DHT22;8702;48.130;-1.696;2023-03-03T05:42:32;4.90;99.90
17174;DHT22;8702;48.130;-1.696;2023-03-03T05:44:59;5.00;99.90
17174;DHT22;8702;48.130;-1.696;2023-03-03T05:47:26;4.90;99.90
17174;DHT22;8702;48.130;-1.696;2023-03-03T05:49:53;4.90;99.90
17174;DHT22;8702;48.130;-1.696;2023-03-03T05:52:21;4.90;99.90
17174;DHT22;8702;48.130;-1.696;2023-03-03T05:54:49;4.90;99.90
17174;DHT22;8702;48.130;-1.696;2023-03-03T05:57:16;4.90;99.90
17174;DHT22;8702;48.130;-1.696;2023-03-03T05:59:42;4.90;99.90
17174;DHT22;8702;48.130;-1.696;2023-03-03T06:02:09;4.80;99.90
17174;DHT22;8702;48.130;-1.696;2023-03-03T06:04:36;4.90;99.90
17174;DHT22;8702;48.130;-1.696;2023-03-03T06:07:04;4.90;99.90
17174;DHT22;8702;48.130;-1.696;2023-03-03T06:09:33;4.80;99.90
17174;DHT22;8702;48.130;-1.696;2023-03-03T06:12:00;4.80;99.90
17174;DHT22;8702;48.130;-1.696;2023-03-03T06:14:27;4.80;99.90
17174;DHT22;8702;48.130;-1.696;2023-03-03T06:16:54;4.70;99.90
17174;DHT22;8702;48.130;-1.696;2023-03-03T06:19:22;4.70;99.90
17174;DHT22;8702;48.130;-1.696;2023-03-03T06:21:49;4.70;99.90
17174;DHT22;8702;48.130;-1.696;2023-03-03T06:24:16;4.70;99.90
17174;DHT22;8702;48.130;-1.696;2023-03-03T06:26:44;4.70;99.90
17174;DHT22;8702;48.130;-1.696;2023-03-03T06:29:11;4.60;99.90
17174;DHT22;8702;48.130;-1.696;2023-03-03T06:31:38;4.60;99.90
17174;DHT22;8702;48.130;-1.696;2023-03-03T06:34:05;4.60;99.90
17174;DHT22;8702;48.130;-1.696;2023-03-03T06:36:32;4.50;99.90
17174;DHT22;8702;48.130;-1.696;2023-03-03T06:38:59;4.40;99.90
17174;DHT22;8702;48.130;-1.696;2023-03-03T06:41:26;4.30;99.90
17174;DHT22;8702;48.130;-1.696;2023-03-03T06:43:54;4.30;99.90
17174;DHT22;8702;48.130;-1.696;2023-03-03T06:46:22;4.30;99.90
17174;DHT22;8702;48.130;-1.696;2023-03-03T06:48:49;4.20;99.90
17174;DHT22;8702;48.130;-1.696;2023-03-03T06:51:22;4.20;99.90
17174;DHT22;8702;48.130;-1.696;2023-03-03T06:53:52;4.10;99.90
17174;DHT22;8702;48.130;-1.696;2023-03-03T06:56:19;4.10;99.90
17174;DHT22;8702;48.130;-1.696;2023-03-03T06:58:46;4.10;99.90
17174;DHT22;8702;48.130;-1.696;2023-03-03T07:01:16;4.10;99.90
17174;DHT22;8702;48.130;-1.696;2023-03-03T07:03:44;4.20;99.90
17174;DHT22;8702;48.130;-1.696;2023-03-03T07:06:21;4.10;99.90
17174;DHT22;8702;48.130;-1.696;2023-03-03T07:08:48;4.20;99.90
17174;DHT22;8702;48.130;-1.696;2023-03-03T07:11:18;4.20;99.90
17174;DHT22;8702;48.130;-1.696;2023-03-03T07:13:47;4.30;99.90
17174;DHT22;8702;48.130;-1.696;2023-03-03T07:16:17;4.30;99.90
17174;DHT22;8702;48.130;-1.696;2023-03-03T07:18:49;4.30;99.90
17174;DHT22;8702;48.130;-1.696;2023-03-03T07:21:18;4.30;99.90
17174;DHT22;8702;48.130;-1.696;2023-03-03T07:23:47;4.30;99.90
17174;DHT22;8702;48.130;-1.696;2023-03-03T07:26:17;4.40;99.90
17174;DHT22;8702;48.130;-1.696;2023-03-03T07:28:50;4.50;99.90
17174;DHT22;8702;48.130;-1.696;2023-03-03T07:31:35;4.50;99.90
17174;DHT22;8702;48.130;-1.696;2023-03-03T07:34:14;4.50;99.90
17174;DHT22;8702;48.130;-1.696;2023-03-03T07:36:43;4.60;99.90
17174;DHT22;8702;48.130;-1.696;2023-03-03T07:39:25;4.60;99.90
17174;DHT22;8702;48.130;-1.696;2023-03-03T07:41:54;4.60;99.90
17174;DHT22;8702;48.130;-1.696;2023-03-03T07:44:30;4.60;99.90
17174;DHT22;8702;48.130;-1.696;2023-03-03T07:47:14;4.70;99.90
17174;DHT22;8702;48.130;-1.696;2023-03-03T07:49:44;4.90;99.90
17174;DHT22;8702;48.130;-1.696;2023-03-03T07:52:23;4.90;99.90
17174;DHT22;8702;48.130;-1.696;2023-03-03T07:54:52;4.90;99.90
17174;DHT22;8702;48.130;-1.696;2023-03-03T07:57:22;4.90;99.90
17174;DHT22;8702;48.130;-1.696;2023-03-03T07:59:52;5.00;99.90
17174;DHT22;8702;48.130;-1.696;2023-03-03T08:02:36;5.10;99.90
17174;DHT22;8702;48.130;-1.696;2023-03-03T08:05:30;5.10;99.90
17174;DHT22;8702;48.130;-1.696;2023-03-03T08:08:12;5.10;99.90
17174;DHT22;8702;48.130;-1.696;2023-03-03T08:10:45;5.10;99.90
17174;DHT22;8702;48.130;-1.696;2023-03-03T08:13:18;5.20;99.90
17174;DHT22;8702;48.130;-1.696;2023-03-03T08:15:46;5.10;99.90
17174;DHT22;8702;48.130;-1.696;2023-03-03T08:18:21;5.20;99.90
17174;DHT22;8702;48.130;-1.696;2023-03-03T08:20:51;5.30;99.90
17174;DHT22;8702;48.130;-1.696;2023-03-03T08:23:19;5.30;99.90
17174;DHT22;8702;48.130;-1.696;2023-03-03T08:25:48;5.30;99.90
17174;DHT22;8702;48.130;-1.696;2023-03-03T08:28:15;5.20;99.90
17174;DHT22;8702;48.130;-1.696;2023-03-03T08:30:44;5.30;99.90
17174;DHT22;8702;48.130;-1.696;2023-03-03T08:33:12;5.40;99.90
17174;DHT22;8702;48.130;-1.696;2023-03-03T08:35:41;5.50;99.90
17174;DHT22;8702;48.130;-1.696;2023-03-03T08:38:09;5.50;99.90
17174;DHT22;8702;48.130;-1.696;2023-03-03T08:40:36;5.60;99.90
17174;DHT22;8702;48.130;-1.696;2023-03-03T08:43:04;5.70;99.90
17174;DHT22;8702;48.130;-1.696;2023-03-03T08:45:32;5.70;99.90
17174;DHT22;8702;48.130;-1.696;2023-03-03T08:47:59;5.80;99.90
17174;DHT22;8702;48.130;-1.696;2023-03-03T08:50:26;5.80;99.90
17174;DHT22;8702;48.130;-1.696;2023-03-03T08:52:55;5.90;99.90
17174;DHT22;8702;48.130;-1.696;2023-03-03T08:55:22;6.00;99.90
17174;DHT22;8702;48.130;-1.696;2023-03-03T08:57:49;6.00;99.90
17174;DHT22;8702;48.130;-1.696;2023-03-03T09:00:17;6.20;99.90
17174;DHT22;8702;48.130;-1.696;2023-03-03T09:02:45;6.10;99.90
17174;DHT22;8702;48.130;-1.696;2023-03-03T09:05:13;6.20;99.90
17174;DHT22;8702;48.130;-1.696;2023-03-03T09:07:40;6.20;99.90
17174;DHT22;8702;48.130;-1.696;2023-03-03T09:10:10;6.20;99.90
17174;DHT22;8702;48.130;-1.696;2023-03-03T09:12:39;6.20;99.90
17174;DHT22;8702;48.130;-1.696;2023-03-03T09:15:18;6.30;99.90
17174;DHT22;8702;48.130;-1.696;2023-03-03T09:17:46;6.30;99.90
17174;DHT22;8702;48.130;-1.696;2023-03-03T09:20:29;6.20;99.90
17174;DHT22;8702;48.130;-1.696;2023-03-03T09:22:57;6.30;99.90
17174;DHT22;8702;48.130;-1.696;2023-03-03T09:25:32;6.30;99.90
17174;DHT22;8702;48.130;-1.696;2023-03-03T09:28:00;6.30;99.90
17174;DHT22;8702;48.130;-1.696;2023-03-03T09:30:38;6.30;99.90
17174;DHT22;8702;48.130;-1.696;2023-03-03T09:33:24;6.40;99.90
17174;DHT22;8702;48.130;-1.696;2023-03-03T09:35:53;6.50;99.90
17174;DHT22;8702;48.130;-1.696;2023-03-03T09:38:27;6.50;99.90
17174;DHT22;8702;48.130;-1.696;2023-03-03T09:41:24;6.60;99.90
17174;DHT22;8702;48.130;-1.696;2023-03-03T09:44:14;6.60;99.90
17174;DHT22;8702;48.130;-1.696;2023-03-03T09:46:52;6.70;99.90
17174;DHT22;8702;48.130;-1.696;2023-03-03T09:49:30;6.70;99.90
17174;DHT22;8702;48.130;-1.696;2023-03-03T09:52:06;6.80;99.90
17174;DHT22;8702;48.130;-1.696;2023-03-03T09:54:52;6.80;99.90
17174;DHT22;8702;48.130;-1.696;2023-03-03T09:57:26;6.80;99.90
17174;DHT22;8702;48.130;-1.696;2023-03-03T10:00:09;6.80;99.90
17174;DHT22;8702;48.130;-1.696;2023-03-03T10:02:48;6.90;99.90
17174;DHT22;8702;48.130;-1.696;2023-03-03T10:05:23;6.90;99.90
17174;DHT22;8702;48.130;-1.696;2023-03-03T10:08:08;6.90;99.90
17174;DHT22;8702;48.130;-1.696;2023-03-03T10:10:55;6.90;99.90
17174;DHT22;8702;48.130;-1.696;2023-03-03T10:13:39;7.00;99.90
17174;DHT22;8702;48.130;-1.696;2023-03-03T10:16:19;7.00;99.90
17174;DHT22;8702;48.130;-1.696;2023-03-03T10:18:51;7.10;99.90
17174;DHT22;8702;48.130;-1.696;2023-03-03T10:21:23;7.20;99.90
17174;DHT22;8702;48.130;-1.696;2023-03-03T10:23:55;7.20;99.90
17174;DHT22;8702;48.130;-1.696;2023-03-03T10:26:49;7.20;99.90
17174;DHT22;8702;48.130;-1.696;2023-03-03T10:29:29;7.20;99.90
17174;DHT22;8702;48.130;-1.696;2023-03-03T10:32:20;7.20;99.90
17174;DHT22;8702;48.130;-1.696;2023-03-03T10:35:13;7.20;99.90
17174;DHT22;8702;48.130;-1.696;2023-03-03T10:37:57;7.10;99.90
17174;DHT22;8702;48.130;-1.696;2023-03-03T10:40:30;7.20;99.90
17174;DHT22;8702;48.130;-1.696;2023-03-03T10:43:19;7.20;99.90
17174;DHT22;8702;48.130;-1.696;2023-03-03T10:46:08;7.30;99.90
17174;DHT22;8702;48.130;-1.696;2023-03-03T10:48:55;7.30;99.90
17174;DHT22;8702;48.130;-1.696;2023-03-03T10:51:29;7.40;99.90
17174;DHT22;8702;48.130;-1.696;2023-03-03T10:54:08;7.40;99.90
17174;DHT22;8702;48.130;-1.696;2023-03-03T10:56:46;7.40;99.90
17174;DHT22;8702;48.130;-1.696;2023-03-03T10:59:31;7.50;99.90
17174;DHT22;8702;48.130;-1.696;2023-03-03T11:02:04;7.60;99.90
17174;DHT22;8702;48.130;-1.696;2023-03-03T11:05:01;7.70;99.90
17174;DHT22;8702;48.130;-1.696;2023-03-03T11:07:35;7.70;99.90
17174;DHT22;8702;48.130;-1.696;2023-03-03T11:10:20;7.80;99.90
17174;DHT22;8702;48.130;-1.696;2023-03-03T11:12:57;7.80;99.90
17174;DHT22;8702;48.130;-1.696;2023-03-03T11:15:39;7.90;99.90
17174;DHT22;8702;48.130;-1.696;2023-03-03T11:18:18;8.00;99.90
17174;DHT22;8702;48.130;-1.696;2023-03-03T11:20:54;8.00;99.90
17174;DHT22;8702;48.130;-1.696;2023-03-03T11:23:49;8.00;99.90
17174;DHT22;8702;48.130;-1.696;2023-03-03T11:26:29;8.10;99.90
17174;DHT22;8702;48.130;-1.696;2023-03-03T11:29:12;8.10;99.90
17174;DHT22;8702;48.130;-1.696;2023-03-03T11:31:48;8.20;99.90
17174;DHT22;8702;48.130;-1.696;2023-03-03T11:34:36;8.10;99.90
17174;DHT22;8702;48.130;-1.696;2023-03-03T11:37:08;8.10;99.90
17174;DHT22;8702;48.130;-1.696;2023-03-03T11:39:37;8.10;99.90
17174;DHT22;8702;48.130;-1.696;2023-03-03T11:42:13;8.10;99.90
17174;DHT22;8702;48.130;-1.696;2023-03-03T11:44:45;8.20;99.90
17174;DHT22;8702;48.130;-1.696;2023-03-03T11:47:19;8.30;99.90
17174;DHT22;8702;48.130;-1.696;2023-03-03T11:49:51;8.30;99.90
17174;DHT22;8702;48.130;-1.696;2023-03-03T11:52:26;8.40;99.90
17174;DHT22;8702;48.130;-1.696;2023-03-03T11:54:59;8.50;99.90
17174;DHT22;8702;48.130;-1.696;2023-03-03T11:57:31;8.50;99.90
17174;DHT22;8702;48.130;-1.696;2023-03-03T12:00:17;8.50;99.90
17174;DHT22;8702;48.130;-1.696;2023-03-03T12:03:10;8.60;99.90
17174;DHT22;8702;48.130;-1.696;2023-03-03T12:05:49;8.80;99.90
17174;DHT22;8702;48.130;-1.696;2023-03-03T12:08:34;8.80;99.90
17174;DHT22;8702;48.130;-1.696;2023-03-03T12:11:10;8.70;99.90
17174;DHT22;8702;48.130;-1.696;2023-03-03T12:13:50;8.80;99.90
17174;DHT22;8702;48.130;-1.696;2023-03-03T12:16:27;8.90;99.90
17174;DHT22;8702;48.130;-1.696;2023-03-03T12:19:05;9.00;99.90
17174;DHT22;8702;48.130;-1.696;2023-03-03T12:21:56;9.00;99.90
17174;DHT22;8702;48.130;-1.696;2023-03-03T12:24:54;9.00;99.90
17174;DHT22;8702;48.130;-1.696;2023-03-03T12:27:30;9.00;99.90
17174;DHT22;8702;48.130;-1.696;2023-03-03T12:30:09;9.00;99.90
17174;DHT22;8702;48.130;-1.696;2023-03-03T12:33:01;9.10;99.90
17174;DHT22;8702;48.130;-1.696;2023-03-03T12:35:38;9.20;99.90
17174;DHT22;8702;48.130;-1.696;2023-03-03T12:38:16;9.20;99.90
17174;DHT22;8702;48.130;-1.696;2023-03-03T12:40:52;9.30;99.90
17174;DHT22;8702;48.130;-1.696;2023-03-03T12:43:31;9.40;99.90
17174;DHT22;8702;48.130;-1.696;2023-03-03T12:46:06;9.50;99.90
17174;DHT22;8702;48.130;-1.696;2023-03-03T12:48:40;9.50;99.90
17174;DHT22;8702;48.130;-1.696;2023-03-03T12:51:17;9.60;99.90
17174;DHT22;8702;48.130;-1.696;2023-03-03T12:54:15;9.60;99.90
17174;DHT22;8702;48.130;-1.696;2023-03-03T17:07:37;13.30;92.80
17174;DHT22;8702;48.130;-1.696;2023-03-03T17:10:19;13.20;93.00
17174;DHT22;8702;48.130;-1.696;2023-03-03T17:13:14;13.10;93.70
17174;DHT22;8702;48.130;-1.696;2023-03-03T17:15:56;12.90;94.30
17174;DHT22;8702;48.130;-1.696;2023-03-03T17:18:39;12.70;94.70
17174;DHT22;8702;48.130;-1.696;2023-03-03T17:21:13;12.70;95.10
17174;DHT22;8702;48.130;-1.696;2023-03-03T17:23:58;12.40;95.40
17174;DHT22;8702;48.130;-1.696;2023-03-03T17:26:37;12.20;95.80
17174;DHT22;8702;48.130;-1.696;2023-03-03T17:29:18;12.00;96.00
17174;DHT22;8702;48.130;-1.696;2023-03-03T17:31:53;11.80;96.60
17174;DHT22;8702;48.130;-1.696;2023-03-03T17:34:33;11.60;96.70
17174;DHT22;8702;48.130;-1.696;2023-03-03T17:37:10;11.50;97.10
17174;DHT22;8702;48.130;-1.696;2023-03-03T17:39:57;11.40;97.20
17174;DHT22;8702;48.130;-1.696;2023-03-03T17:42:35;11.10;97.70
17174;DHT22;8702;48.130;-1.696;2023-03-03T17:45:08;11.00;98.10
17174;DHT22;8702;48.130;-1.696;2023-03-03T17:47:46;10.90;98.20
17174;DHT22;8702;48.130;-1.696;2023-03-03T17:50:52;10.80;98.30
17174;DHT22;8702;48.130;-1.696;2023-03-03T17:53:37;10.70;98.50
17174;DHT22;8702;48.130;-1.696;2023-03-03T17:56:15;10.60;98.70
17174;DHT22;8702;48.130;-1.696;2023-03-03T18:01:53;10.40;98.80
17174;DHT22;8702;48.130;-1.696;2023-03-03T18:04:37;10.20;99.00
17174;DHT22;8702;48.130;-1.696;2023-03-03T18:07:32;10.10;99.10
17174;DHT22;8702;48.130;-1.696;2023-03-03T18:10:25;9.90;99.10
17174;DHT22;8702;48.130;-1.696;2023-03-03T18:13:05;9.90;99.10
17174;DHT22;8702;48.130;-1.696;2023-03-03T18:15:47;9.90;98.90
17174;DHT22;8702;48.130;-1.696;2023-03-03T18:18:29;9.80;99.00
17174;DHT22;8702;48.130;-1.696;2023-03-03T18:21:03;9.80;99.00
17174;DHT22;8702;48.130;-1.696;2023-03-03T18:23:38;9.80;99.10
17174;DHT22;8702;48.130;-1.696;2023-03-03T18:26:31;9.70;99.20
17174;DHT22;8702;48.130;-1.696;2023-03-03T18:29:16;9.60;99.30
17174;DHT22;8702;48.130;-1.696;2023-03-03T18:31:59;9.50;99.30
17174;DHT22;8702;48.130;-1.696;2023-03-03T18:34:33;9.40;99.50
17174;DHT22;8702;48.130;-1.696;2023-03-03T18:37:06;9.30;99.50
17174;DHT22;8702;48.130;-1.696;2023-03-03T18:39:39;9.30;99.60
17174;DHT22;8702;48.130;-1.696;2023-03-03T18:42:33;9.20;99.70
17174;DHT22;8702;48.130;-1.696;2023-03-03T18:45:47;9.10;99.90
17174;DHT22;8702;48.130;-1.696;2023-03-03T18:48:15;9.00;99.90
17174;DHT22;8702;48.130;-1.696;2023-03-03T18:50:45;9.00;99.90
17174;DHT22;8702;48.130;-1.696;2023-03-03T18:53:21;8.90;99.90
17174;DHT22;8702;48.130;-1.696;2023-03-03T18:55:49;8.80;99.90
17174;DHT22;8702;48.130;-1.696;2023-03-03T18:58:33;8.80;99.90
17174;DHT22;8702;48.130;-1.696;2023-03-03T19:01:13;8.70;99.90
17174;DHT22;8702;48.130;-1.696;2023-03-03T19:04:17;8.60;99.90
17174;DHT22;8702;48.130;-1.696;2023-03-03T19:07:13;8.60;99.90
17174;DHT22;8702;48.130;-1.696;2023-03-03T19:09:53;8.50;99.90
17174;DHT22;8702;48.130;-1.696;2023-03-03T19:12:47;8.40;99.90
17174;DHT22;8702;48.130;-1.696;2023-03-03T19:18:32;8.40;99.90
17174;DHT22;8702;48.130;-1.696;2023-03-03T19:21:02;8.40;99.90
17174;DHT22;8702;48.130;-1.696;2023-03-03T19:23:46;8.30;99.90
17174;DHT22;8702;48.130;-1.696;2023-03-03T19:26:48;8.30;99.90
17174;DHT22;8702;48.130;-1.696;2023-03-03T19:29:35;8.30;99.90
17174;DHT22;8702;48.130;-1.696;2023-03-03T19:32:19;8.30;99.90
17174;DHT22;8702;48.130;-1.696;2023-03-03T19:34:59;8.10;99.90
17174;DHT22;8702;48.130;-1.696;2023-03-03T19:37:37;8.10;99.90
17174;DHT22;8702;48.130;-1.696;2023-03-03T19:40:15;8.10;99.90
17174;DHT22;8702;48.130;-1.696;2023-03-03T19:42:51;8.00;99.90
17174;DHT22;8702;48.130;-1.696;2023-03-03T19:45:52;7.90;99.90
17174;DHT22;8702;48.130;-1.696;2023-03-03T19:48:28;7.90;99.90
17174;DHT22;8702;48.130;-1.696;2023-03-03T19:51:03;8.00;99.90
17174;DHT22;8702;48.130;-1.696;2023-03-03T19:53:36;7.90;99.90
17174;DHT22;8702;48.130;-1.696;2023-03-03T19:56:17;7.90;99.90
17174;DHT22;8702;48.130;-1.696;2023-03-03T19:59:01;7.80;99.90
17174;DHT22;8702;48.130;-1.696;2023-03-03T20:01:41;7.70;99.90
17174;DHT22;8702;48.130;-1.696;2023-03-03T20:04:30;7.70;99.90
17174;DHT22;8702;48.130;-1.696;2023-03-03T20:07:03;7.70;99.90
17174;DHT22;8702;48.130;-1.696;2023-03-03T20:09:38;7.70;99.90
17174;DHT22;8702;48.130;-1.696;2023-03-03T20:12:32;7.60;99.90
17174;DHT22;8702;48.130;-1.696;2023-03-03T20:15:10;7.70;99.90
17174;DHT22;8702;48.130;-1.696;2023-03-03T20:18:02;7.60;99.90
17174;DHT22;8702;48.130;-1.696;2023-03-03T20:20:48;7.60;99.90
17174;DHT22;8702;48.130;-1.696;2023-03-03T20:23:21;7.60;99.90
17174;DHT22;8702;48.130;-1.696;2023-03-03T20:25:51;7.60;99.90
17174;DHT22;8702;48.130;-1.696;2023-03-03T20:31:20;7.50;99.90
17174;DHT22;8702;48.130;-1.696;2023-03-03T20:33:55;7.50;99.90
17174;DHT22;8702;48.130;-1.696;2023-03-03T20:36:31;7.50;99.90
17174;DHT22;8702;48.130;-1.696;2023-03-03T20:39:06;7.40;99.90
17174;DHT22;8702;48.130;-1.696;2023-03-03T20:41:52;7.40;99.90
17174;DHT22;8702;48.130;-1.696;2023-03-03T20:44:34;7.40;99.90
17174;DHT22;8702;48.130;-1.696;2023-03-03T20:47:11;7.30;99.90
17174;DHT22;8702;48.130;-1.696;2023-03-03T20:50:01;7.40;99.90